createdAt,value
2022-11-08T00:00:44.012Z,71.36
2022-11-08T00:03:11.781Z,71.10
2022-11-08T00:05:57.919Z,71.62
2022-11-08T00:08:44.114Z,71.41
2022-11-08T00:11:30.400Z,71.73
2022-11-08T00:13:58.775Z,72.00
2022-11-08T00:16:27.542Z,71.98
2022-11-08T00:18:55.100Z,72.19
2022-11-08T00:21:22.597Z,72.30
2022-11-08T00:23:50.057Z,72.35
2022-11-08T00:26:17.699Z,72.18
2022-11-08T00:28:45.559Z,72.05
2022-11-08T00:31:13.118Z,72.30
2022-11-08T00:33:40.574Z,72.38
2022-11-08T00:36:08.484Z,72.46
2022-11-08T00:38:36.009Z,72.53
2022-11-08T00:41:03.571Z,72.49
2022-11-08T00:43:31.050Z,72.39
2022-11-08T00:45:58.488Z,72.51
2022-11-08T00:48:26.114Z,72.95
2022-11-08T00:50:53.774Z,72.96
2022-11-08T00:53:21.564Z,72.60
2022-11-08T00:55:48.990Z,73.36
2022-11-08T00:58:16.967Z,73.30
2022-11-08T01:00:47.194Z,73.21
2022-11-08T01:03:20.727Z,73.02
2022-11-08T01:05:49.825Z,72.85
2022-11-08T01:08:19.679Z,72.85
2022-11-08T01:10:52.060Z,73.02
2022-11-08T01:13:19.814Z,72.78
2022-11-08T01:15:48.015Z,73.17
2022-11-08T01:18:17.435Z,73.02
2022-11-08T01:20:47.316Z,72.79
2022-11-08T01:23:16.494Z,72.69
2022-11-08T01:25:46.619Z,72.94
2022-11-08T01:28:14.764Z,73.03
2022-11-08T01:30:44.478Z,72.99
2022-11-08T01:33:13.604Z,72.73
2022-11-08T01:35:44.482Z,72.92
2022-11-08T01:38:12.023Z,72.49
2022-11-08T01:40:47.136Z,72.94
2022-11-08T01:43:26.577Z,73.39
2022-11-08T01:46:29.890Z,74.14
2022-11-08T01:49:09.275Z,73.87
2022-11-08T01:51:41.845Z,74.14
2022-11-08T01:54:13.370Z,73.95
2022-11-08T01:56:42.163Z,73.45
2022-11-08T01:59:12.295Z,73.12
2022-11-08T02:01:39.914Z,73.87
2022-11-08T02:04:07.981Z,74.01
2022-11-08T02:06:39.387Z,74.32
2022-11-08T02:09:09.695Z,74.03
2022-11-08T02:11:37.512Z,73.60
2022-11-08T02:14:05.349Z,73.75
2022-11-08T02:16:32.848Z,74.13
2022-11-08T02:19:00.422Z,73.70
2022-11-08T02:21:36.490Z,74.38
2022-11-08T02:24:09.773Z,74.53
2022-11-08T02:26:38.263Z,73.94
2022-11-08T02:29:32.097Z,74.08
2022-11-08T02:32:01.146Z,73.83
2022-11-08T02:34:56.871Z,74.50
2022-11-08T02:37:26.537Z,74.35
2022-11-08T02:39:54.103Z,74.39
2022-11-08T02:42:21.643Z,73.91
2022-11-08T02:44:49.301Z,74.37
2022-11-08T02:47:16.902Z,74.73
2022-11-08T02:49:44.472Z,74.45
2022-11-08T02:52:11.965Z,74.67
2022-11-08T02:54:39.510Z,74.62
2022-11-08T02:57:07.145Z,74.85
2022-11-08T02:59:34.602Z,75.26
2022-11-08T03:02:02.092Z,74.61
2022-11-08T03:04:29.722Z,74.71
2022-11-08T03:06:59.302Z,75.15
2022-11-08T03:09:27.460Z,75.17
2022-11-08T03:11:55.025Z,74.63
2022-11-08T03:14:22.729Z,75.31
2022-11-08T03:16:50.316Z,74.83
2022-11-08T03:19:17.718Z,74.88
2022-11-08T03:21:45.267Z,75.23
2022-11-08T03:24:12.835Z,75.07
2022-11-08T03:26:40.368Z,74.77
2022-11-08T03:29:07.921Z,75.18
2022-11-08T03:31:35.444Z,75.00
2022-11-08T03:34:02.864Z,75.08
2022-11-08T03:36:30.455Z,75.20
2022-11-08T03:38:57.892Z,74.83
2022-11-08T03:41:25.530Z,75.20
2022-11-08T03:43:53.005Z,75.48
2022-11-08T03:46:20.527Z,75.42
2022-11-08T03:48:47.976Z,75.93
2022-11-08T03:51:15.484Z,75.76
2022-11-08T03:53:42.904Z,75.41
2022-11-08T03:56:10.427Z,75.02
2022-11-08T03:58:37.934Z,75.43
2022-11-08T04:01:06.524Z,75.13
2022-11-08T04:03:34.155Z,74.72
2022-11-08T04:06:02.202Z,75.04
2022-11-08T04:08:30.857Z,75.37
2022-11-08T04:11:21.812Z,75.32
2022-11-08T04:14:08.110Z,74.93
2022-11-08T04:16:35.821Z,74.64
2022-11-08T04:19:22.250Z,74.85
2022-11-08T04:21:52.740Z,74.54
2022-11-08T04:24:21.081Z,74.66
2022-11-08T04:26:48.611Z,74.42
2022-11-08T04:29:16.139Z,75.03
2022-11-08T04:31:43.702Z,74.45
2022-11-08T04:34:11.245Z,74.21
2022-11-08T04:36:38.928Z,74.82
2022-11-08T04:39:06.655Z,74.92
2022-11-08T04:41:34.218Z,75.03
2022-11-08T04:44:01.760Z,75.15
2022-11-08T04:46:29.950Z,75.02
2022-11-08T04:48:59.725Z,75.01
2022-11-08T04:51:31.319Z,75.05
2022-11-08T04:54:00.751Z,74.99
2022-11-08T04:56:30.267Z,75.15
2022-11-08T04:58:59.718Z,75.29
2022-11-08T05:01:30.055Z,74.75
2022-11-08T05:03:58.391Z,74.70
2022-11-08T05:06:29.084Z,74.88
2022-11-08T05:08:58.164Z,75.14
2022-11-08T05:11:27.335Z,75.28
2022-11-08T05:13:55.376Z,74.90
2022-11-08T05:16:26.824Z,74.54
2022-11-08T05:18:55.067Z,74.65
2022-11-08T05:21:41.970Z,75.09
2022-11-08T05:24:12.827Z,75.07
2022-11-08T05:26:45.246Z,75.07
2022-11-08T05:29:14.080Z,75.06
2022-11-08T05:31:41.636Z,74.94
2022-11-08T05:34:09.238Z,74.67
2022-11-08T05:36:36.744Z,74.54
2022-11-08T05:39:04.279Z,75.33
2022-11-08T05:41:31.803Z,75.43
2022-11-08T05:43:59.384Z,75.11
2022-11-08T05:46:26.806Z,74.94
2022-11-08T05:48:54.571Z,74.91
2022-11-08T05:51:22.229Z,74.57
2022-11-08T05:53:49.843Z,74.89
2022-11-08T05:56:17.992Z,75.31
2022-11-08T05:58:46.382Z,75.40
2022-11-08T06:01:16.818Z,75.37
2022-11-08T06:03:44.835Z,74.89
2022-11-08T06:06:15.099Z,74.86
2022-11-08T06:08:47.457Z,75.13
2022-11-08T06:11:21.655Z,75.14
2022-11-08T06:13:50.198Z,75.02
2022-11-08T06:16:19.391Z,74.93
2022-11-08T06:18:47.711Z,74.94
2022-11-08T06:21:18.464Z,75.02
2022-11-08T06:23:46.453Z,74.83
2022-11-08T06:26:13.955Z,74.86
2022-11-08T06:28:41.592Z,75.05
2022-11-08T06:31:09.281Z,74.90
2022-11-08T06:33:37.108Z,74.90
2022-11-08T06:36:06.254Z,74.90
2022-11-08T06:38:33.816Z,75.08
2022-11-08T06:41:02.383Z,75.31
2022-11-08T06:43:30.108Z,74.97
2022-11-08T06:46:02.437Z,75.08
2022-11-08T06:48:35.539Z,74.35
2022-11-08T06:51:04.390Z,74.59
2022-11-08T06:53:32.898Z,75.10
2022-11-08T06:56:01.700Z,74.94
2022-11-08T06:58:29.713Z,74.83
2022-11-08T07:00:57.694Z,75.11
2022-11-08T07:03:25.177Z,75.01
2022-11-08T07:05:52.669Z,74.97
2022-11-08T07:08:23.647Z,75.01
2022-11-08T07:10:51.987Z,74.89
2022-11-08T07:13:20.251Z,74.79
2022-11-08T07:15:48.254Z,75.33
2022-11-08T07:18:17.762Z,75.28
2022-11-08T07:20:45.794Z,75.11
2022-11-08T07:23:13.329Z,75.52
2022-11-08T07:25:41.204Z,75.00
2022-11-08T07:28:15.039Z,75.80
2022-11-08T07:30:42.576Z,75.42
2022-11-08T07:33:10.022Z,75.60
2022-11-08T07:35:39.702Z,75.42
2022-11-08T07:38:07.300Z,75.65
2022-11-08T07:40:37.312Z,75.83
2022-11-08T07:43:11.671Z,75.46
2022-11-08T07:45:41.290Z,75.94
2022-11-08T07:48:12.926Z,75.78
2022-11-08T07:50:44.409Z,75.72
2022-11-08T07:53:12.021Z,75.79
2022-11-08T07:55:41.020Z,75.40
2022-11-08T07:58:10.824Z,75.05
2022-11-08T08:00:40.830Z,75.15
2022-11-08T08:03:11.005Z,75.13
2022-11-08T08:05:41.617Z,75.20
2022-11-08T08:08:10.689Z,75.01
2022-11-08T08:10:38.787Z,74.63
2022-11-08T08:13:06.891Z,74.96
2022-11-08T08:15:34.479Z,74.98
2022-11-08T08:18:07.262Z,74.45
2022-11-08T08:20:35.706Z,74.76
2022-11-08T08:23:03.191Z,75.03
2022-11-08T08:25:33.766Z,74.84
2022-11-08T08:28:01.978Z,74.67
2022-11-08T08:30:31.349Z,75.00
2022-11-08T08:33:26.898Z,75.24
2022-11-08T08:35:53.111Z,75.35
2022-11-08T08:38:20.779Z,74.96
2022-11-08T08:40:48.198Z,74.88
2022-11-08T08:43:15.988Z,74.55
2022-11-08T08:45:43.809Z,74.88
2022-11-08T08:48:11.454Z,74.51
2022-11-08T08:50:41.095Z,74.64
2022-11-08T08:53:08.733Z,73.49
2022-11-08T08:55:38.096Z,74.24
2022-11-08T08:58:05.951Z,74.38
2022-11-08T09:03:21.603Z,74.93
2022-11-08T09:05:49.403Z,74.60
2022-11-08T09:08:16.949Z,74.28
2022-11-08T09:10:55.952Z,74.62
2022-11-08T09:13:24.791Z,74.05
2022-11-08T09:15:53.261Z,74.36
2022-11-08T09:18:20.998Z,74.37
2022-11-08T09:20:48.962Z,74.16
2022-11-08T09:23:18.008Z,74.10
2022-11-08T09:25:45.829Z,74.19
2022-11-08T09:28:13.369Z,74.32
2022-11-08T09:30:40.870Z,74.51
2022-11-08T09:33:08.476Z,74.05
2022-11-08T09:35:35.994Z,74.52
2022-11-08T09:38:03.622Z,74.35
2022-11-08T09:40:38.522Z,75.10
2022-11-08T09:43:40.843Z,75.38
2022-11-08T09:46:14.257Z,74.69
2022-11-08T09:48:44.693Z,74.65
2022-11-08T09:51:15.543Z,74.68
2022-11-08T09:53:56.342Z,75.03
2022-11-08T09:56:36.955Z,75.38
2022-11-08T09:59:30.329Z,74.94
2022-11-08T10:01:58.036Z,74.83
2022-11-08T10:04:31.035Z,74.71
2022-11-08T10:07:24.093Z,75.31
2022-11-08T10:10:03.374Z,74.91
2022-11-08T10:12:49.902Z,74.97
2022-11-08T10:15:23.497Z,75.65
2022-11-08T10:18:35.971Z,75.04
2022-11-08T10:21:47.466Z,75.83
2022-11-08T10:24:35.447Z,75.39
2022-11-08T10:27:03.904Z,75.24
2022-11-08T10:29:42.436Z,74.81
2022-11-08T10:32:20.304Z,75.06
2022-11-08T10:35:13.627Z,74.98
2022-11-08T10:37:43.747Z,74.64
2022-11-08T10:40:33.928Z,75.50
2022-11-08T10:43:09.623Z,75.24
2022-11-08T10:45:37.658Z,75.16
2022-11-08T10:48:13.286Z,75.18
2022-11-08T10:50:45.403Z,75.53
2022-11-08T10:53:44.059Z,75.41
2022-11-08T10:56:11.736Z,74.55
2022-11-08T10:58:42.602Z,75.03
2022-11-08T11:01:19.024Z,75.06
2022-11-08T11:03:48.393Z,74.80
2022-11-08T11:06:32.825Z,74.90
2022-11-08T11:09:03.831Z,74.83
2022-11-08T11:11:31.305Z,75.09
2022-11-08T11:14:18.423Z,74.79
2022-11-08T11:17:14.867Z,74.78
2022-11-08T11:19:56.965Z,75.04
2022-11-08T11:22:32.363Z,74.77
2022-11-08T11:25:14.732Z,74.99
2022-11-08T11:27:43.374Z,74.75
2022-11-08T11:30:30.823Z,75.01
2022-11-08T11:33:05.032Z,74.48
2022-11-08T11:35:47.766Z,74.59
2022-11-08T11:38:35.615Z,74.68
2022-11-08T11:41:26.753Z,74.76
2022-11-08T11:44:16.294Z,74.75
2022-11-08T11:46:51.706Z,74.71
2022-11-08T11:49:22.501Z,74.69
2022-11-08T11:51:55.076Z,74.89
2022-11-08T11:54:32.318Z,74.82
2022-11-08T11:57:15.655Z,75.08
2022-11-08T11:59:58.095Z,74.79
2022-11-08T12:02:53.523Z,75.61
2022-11-08T12:05:39.564Z,75.33
2022-11-08T12:08:44.199Z,75.67
2022-11-08T12:11:41.704Z,75.79
2022-11-08T12:14:33.578Z,75.25
2022-11-08T12:17:18.788Z,74.84
2022-11-08T12:20:14.619Z,75.01
2022-11-08T12:23:09.093Z,74.54
2022-11-08T12:25:59.220Z,75.59
2022-11-08T12:29:03.454Z,75.46
2022-11-08T12:31:35.509Z,75.46
2022-11-08T12:34:25.990Z,75.74
2022-11-08T12:37:18.365Z,75.85
2022-11-08T12:39:54.800Z,75.92
2022-11-08T12:42:43.618Z,76.26
2022-11-08T12:45:17.257Z,75.50
2022-11-08T12:47:59.017Z,75.36
2022-11-08T12:50:39.306Z,75.86
2022-11-08T12:53:33.176Z,75.39
2022-11-08T12:56:04.512Z,76.02
2022-11-08T12:58:36.743Z,76.18
2022-11-08T13:01:13.792Z,76.05
2022-11-08T13:03:47.156Z,75.44
2022-11-08T13:06:43.404Z,76.15
2022-11-08T13:09:32.493Z,76.41
2022-11-08T13:12:43.332Z,75.93
2022-11-08T13:15:25.260Z,75.92
2022-11-08T13:18:19.218Z,76.36
2022-11-08T13:20:48.677Z,76.05
2022-11-08T13:23:30.694Z,76.47
2022-11-08T13:26:24.385Z,76.05
2022-11-08T13:28:53.469Z,75.99
2022-11-08T13:31:47.136Z,76.18
2022-11-08T13:34:21.786Z,76.27
2022-11-08T13:37:07.387Z,76.58
2022-11-08T13:40:03.554Z,76.70
2022-11-08T13:42:33.348Z,76.60
2022-11-08T13:45:13.930Z,76.78
2022-11-08T13:47:44.104Z,76.40
2022-11-08T13:50:29.785Z,76.86
2022-11-08T13:53:19.212Z,76.25
2022-11-08T13:55:47.681Z,76.12
2022-11-08T13:58:36.805Z,76.98
2022-11-08T14:01:04.320Z,76.63
2022-11-08T14:03:34.766Z,76.33
2022-11-08T14:06:04.916Z,76.11
2022-11-08T14:09:01.241Z,77.15
2022-11-08T14:11:41.062Z,76.82
2022-11-08T14:14:12.772Z,76.88
2022-11-08T14:16:55.300Z,76.89
2022-11-08T14:19:25.904Z,76.56
2022-11-08T14:21:57.180Z,76.75
2022-11-08T14:24:29.089Z,76.81
2022-11-08T14:26:56.766Z,76.86
2022-11-08T14:29:25.336Z,76.52
2022-11-08T14:32:22.213Z,76.91
2022-11-08T14:34:49.695Z,76.32
2022-11-08T14:37:27.000Z,77.21
2022-11-08T14:39:54.702Z,76.93
2022-11-08T14:42:24.830Z,76.79
2022-11-08T14:44:54.633Z,77.11
2022-11-08T14:47:30.318Z,77.44
2022-11-08T14:49:59.395Z,77.01
2022-11-08T14:52:31.990Z,77.68
2022-11-08T14:55:02.180Z,77.56
2022-11-08T14:57:38.392Z,77.54
2022-11-08T15:00:29.846Z,77.65
2022-11-08T15:03:03.393Z,77.51
2022-11-08T15:05:56.045Z,77.62
2022-11-08T15:08:27.799Z,77.23
2022-11-08T15:10:57.090Z,77.09
2022-11-08T15:13:27.274Z,77.03
2022-11-08T15:16:01.655Z,77.88
2022-11-08T15:18:41.280Z,77.89
2022-11-08T15:21:29.492Z,77.90
2022-11-08T15:24:16.685Z,77.28
2022-11-08T15:27:10.477Z,77.52
2022-11-08T15:29:58.427Z,77.83
2022-11-08T15:32:27.099Z,77.01
2022-11-08T15:34:58.662Z,77.32
2022-11-08T15:37:32.177Z,77.21
2022-11-08T15:40:05.962Z,77.18
2022-11-08T15:42:34.935Z,76.93
2022-11-08T15:45:14.562Z,77.23
2022-11-08T15:47:41.999Z,77.21
2022-11-08T15:50:27.229Z,77.43
2022-11-08T15:52:57.290Z,77.24
2022-11-08T15:55:32.371Z,77.72
2022-11-08T15:58:00.147Z,77.71
2022-11-08T16:00:31.745Z,77.36
2022-11-08T16:02:59.376Z,77.42
2022-11-08T16:05:29.539Z,77.56
2022-11-08T16:07:57.076Z,77.62
2022-11-08T16:10:31.689Z,77.60
2022-11-08T16:13:01.091Z,77.59
2022-11-08T16:15:34.391Z,77.31
2022-11-08T16:18:02.766Z,77.63
2022-11-08T16:20:37.402Z,77.66
2022-11-08T16:23:07.503Z,76.73
2022-11-08T16:25:46.772Z,77.21
2022-11-08T16:28:34.670Z,77.10
2022-11-08T16:31:02.715Z,77.53
2022-11-08T16:33:32.035Z,77.41
2022-11-08T16:36:12.612Z,77.45
2022-11-08T16:38:40.247Z,77.49
2022-11-08T16:41:07.770Z,77.42
2022-11-08T16:43:35.516Z,77.16
2022-11-08T16:46:07.360Z,77.53
2022-11-08T16:48:38.276Z,77.62
2022-11-08T16:51:13.378Z,77.33
2022-11-08T16:53:40.964Z,77.19
2022-11-08T16:56:08.615Z,77.32
2022-11-08T16:58:36.280Z,77.25
2022-11-08T17:01:10.561Z,77.11
2022-11-08T17:03:38.479Z,76.99
2022-11-08T17:06:07.332Z,77.07
2022-11-08T17:08:37.452Z,77.32
2022-11-08T17:11:05.474Z,77.23
2022-11-08T17:13:39.089Z,77.36
2022-11-08T17:16:11.596Z,77.56
2022-11-08T17:18:39.590Z,77.14
2022-11-08T17:21:37.859Z,77.11
2022-11-08T17:23:57.996Z,76.91
2022-11-08T17:26:26.858Z,77.19
2022-11-08T17:28:57.578Z,77.51
2022-11-08T17:31:25.159Z,77.39
2022-11-08T17:33:55.455Z,77.31
2022-11-08T17:36:25.449Z,77.13
2022-11-08T17:38:53.120Z,77.22
2022-11-08T17:41:20.881Z,77.19
2022-11-08T17:43:48.490Z,77.29
2022-11-08T17:46:16.132Z,77.07
2022-11-08T17:48:43.673Z,76.70
2022-11-08T17:51:20.358Z,76.52
2022-11-08T17:53:48.252Z,76.46
2022-11-08T17:56:16.382Z,76.29
2022-11-08T17:58:44.040Z,76.65
2022-11-08T18:01:11.740Z,76.45
2022-11-08T18:03:39.360Z,76.59
2022-11-08T18:06:12.184Z,77.23
2022-11-08T18:08:40.499Z,77.48
2022-11-08T18:11:08.390Z,77.24
2022-11-08T18:13:36.433Z,77.32
2022-11-08T18:16:11.451Z,77.53
2022-11-08T18:18:39.406Z,77.58
2022-11-08T18:21:08.263Z,77.70
2022-11-08T18:23:36.036Z,77.71
2022-11-08T18:26:03.771Z,77.59
2022-11-08T18:28:31.458Z,77.78
2022-11-08T18:31:08.097Z,77.95
2022-11-08T18:33:36.390Z,77.48
2022-11-08T18:36:08.820Z,77.16
2022-11-08T18:38:39.160Z,77.12
2022-11-08T18:41:08.119Z,77.23
2022-11-08T18:43:35.649Z,77.30
2022-11-08T18:46:04.955Z,77.43
2022-11-08T18:48:35.834Z,77.08
2022-11-08T18:51:05.540Z,77.44
2022-11-08T18:53:33.312Z,77.53
2022-11-08T18:56:00.971Z,77.61
2022-11-08T18:58:34.813Z,77.68
2022-11-08T19:01:02.574Z,77.88
2022-11-08T19:03:30.017Z,77.64
2022-11-08T19:05:57.576Z,77.87
2022-11-08T19:08:30.724Z,77.93
2022-11-08T19:11:01.234Z,77.66
2022-11-08T19:13:41.128Z,77.75
2022-11-08T19:16:20.110Z,78.11
2022-11-08T19:18:50.002Z,78.15
2022-11-08T19:21:22.839Z,78.31
2022-11-08T19:23:54.319Z,77.53
2022-11-08T19:26:24.505Z,77.91
2022-11-08T19:28:54.538Z,77.54
2022-11-08T19:31:24.408Z,77.60
2022-11-08T19:33:53.429Z,77.44
2022-11-08T19:36:24.475Z,77.76
2022-11-08T19:38:54.898Z,77.79
2022-11-08T19:41:28.416Z,77.98
2022-11-08T19:43:55.991Z,78.01
2022-11-08T19:46:26.881Z,78.18
2022-11-08T19:48:54.445Z,78.47
2022-11-08T19:51:24.994Z,78.63
2022-11-08T19:53:58.832Z,78.44
2022-11-08T19:56:50.180Z,78.33
2022-11-08T19:59:14.348Z,77.91
2022-11-08T20:01:41.940Z,78.04
2022-11-08T20:04:11.819Z,77.90
2022-11-08T20:06:39.734Z,78.10
2022-11-08T20:09:09.410Z,77.97
2022-11-08T20:11:40.319Z,78.07
2022-11-08T20:14:10.522Z,77.93
2022-11-08T20:16:41.624Z,78.00
2022-11-08T20:19:12.242Z,77.89
2022-11-08T20:21:42.335Z,78.07
2022-11-08T20:24:11.123Z,77.83
2022-11-08T20:26:39.318Z,77.44
2022-11-08T20:29:07.462Z,77.77
2022-11-08T20:31:36.912Z,77.97
2022-11-08T20:34:07.524Z,77.80
2022-11-08T20:36:37.637Z,77.54
2022-11-08T20:39:07.744Z,77.98
2022-11-08T20:41:39.254Z,78.29
2022-11-08T20:44:08.585Z,78.13
2022-11-08T20:46:37.115Z,78.15
2022-11-08T20:49:05.483Z,78.23
2022-11-08T20:51:32.999Z,78.08
2022-11-08T20:54:01.600Z,78.06
2022-11-08T20:56:29.832Z,78.34
2022-11-08T20:58:57.622Z,78.55
2022-11-08T21:01:28.189Z,78.57
2022-11-08T21:03:56.558Z,78.82
2022-11-08T21:06:36.031Z,78.19
2022-11-08T21:09:29.644Z,78.04
2022-11-08T21:11:53.325Z,78.00
2022-11-08T21:14:21.243Z,77.79
2022-11-08T21:17:19.755Z,77.80
2022-11-08T21:19:36.259Z,78.29
2022-11-08T21:22:15.739Z,78.33
2022-11-08T21:24:44.569Z,78.24
2022-11-08T21:27:12.233Z,78.26
2022-11-08T21:29:40.133Z,78.19
2022-11-08T21:32:08.048Z,78.36
2022-11-08T21:34:35.593Z,78.69
2022-11-08T21:37:03.283Z,78.52
2022-11-08T21:39:30.738Z,78.53
2022-11-08T21:41:58.198Z,78.51
2022-11-08T21:44:25.800Z,78.33
2022-11-08T21:46:53.321Z,78.42
2022-11-08T21:49:20.800Z,78.72
2022-11-08T21:51:48.259Z,78.57
2022-11-08T21:54:15.698Z,78.40
2022-11-08T21:56:43.134Z,78.66
2022-11-08T21:59:11.003Z,78.45
2022-11-08T22:01:38.518Z,78.30
2022-11-08T22:04:06.130Z,78.81
2022-11-08T22:06:34.356Z,78.58
2022-11-08T22:09:03.713Z,78.70
2022-11-08T22:11:31.201Z,78.37
2022-11-08T22:13:58.657Z,78.62
2022-11-08T22:16:26.169Z,78.84
2022-11-08T22:19:09.836Z,78.97
2022-11-08T22:21:43.179Z,78.73
2022-11-08T22:24:13.555Z,78.96
2022-11-08T22:26:41.561Z,78.88
2022-11-08T22:29:09.756Z,78.79
2022-11-08T22:31:37.667Z,78.91
2022-11-08T22:34:07.993Z,78.65
2022-11-08T22:36:39.934Z,78.79
2022-11-08T22:39:16.397Z,79.10
2022-11-08T22:41:45.130Z,78.83
2022-11-08T22:44:13.482Z,78.81
2022-11-08T22:46:42.476Z,78.61
2022-11-08T22:49:11.164Z,78.93
2022-11-08T22:51:39.579Z,78.98
2022-11-08T22:54:07.539Z,79.18
2022-11-08T22:56:35.869Z,79.28
2022-11-08T22:59:04.087Z,79.33
2022-11-08T23:01:32.170Z,79.47
2022-11-08T23:04:00.100Z,79.25
2022-11-08T23:06:27.715Z,79.00
2022-11-08T23:08:55.260Z,79.37
2022-11-08T23:11:41.072Z,79.34
2022-11-08T23:14:32.284Z,79.20
2022-11-08T23:17:03.049Z,79.45
2022-11-08T23:19:49.283Z,79.68
2022-11-08T23:22:35.965Z,79.30
2022-11-08T23:25:03.916Z,79.31
2022-11-08T23:27:50.130Z,79.35
2022-11-08T23:30:37.260Z,79.00
2022-11-08T23:33:07.030Z,79.21
2022-11-08T23:35:35.140Z,79.23
2022-11-08T23:38:02.638Z,79.06
2022-11-08T23:40:48.692Z,78.99
2022-11-08T23:43:36.955Z,79.08
2022-11-08T23:46:11.550Z,79.76
2022-11-08T23:48:40.211Z,79.56
2022-11-08T23:51:08.021Z,79.48
2022-11-08T23:53:40.065Z,79.51
2022-11-08T23:56:07.967Z,79.45
2022-11-08T23:58:35.448Z,79.25
